Time;durP1;ratioP1;P1;durP2;ratioP2;P2;SDS_P1;SDS_P2;PMS_P1;PMS_P2;Temp;Humidity;BMP_temperature;BMP_pressure;BME280_temperature;BME280_humidity;BME280_pressure;Samples;Min_cycle;Max_cycle;Signal;HPM_P1;HPM_P2
2023/08/06 00:00:27;;;;;;;4.68;2.92;;;;;;;11.76;100.00;96598.16;5041531;28;20045;-56
2023/08/06 00:02:54;;;;;;;4.72;2.40;;;;;;;11.77;100.00;96618.75;5039335;28;20052;-59
2023/08/06 00:05:21;;;;;;;4.75;3.00;;;;;;;11.76;100.00;96612.50;5041019;28;20044;-58
2023/08/06 00:07:48;;;;;;;5.30;3.35;;;;;;;11.86;100.00;96630.63;5036269;28;20051;-58
2023/08/06 00:10:15;;;;;;;6.30;2.95;;;;;;;11.65;100.00;96605.53;5045139;28;20049;-57
2023/08/06 00:12:42;;;;;;;6.95;3.00;;;;;;;11.65;100.00;96613.66;5040219;28;20045;-58
2023/08/06 00:15:10;;;;;;;6.30;2.92;;;;;;;11.42;100.00;96613.19;5040789;28;20049;-57
2023/08/06 00:17:36;;;;;;;5.20;3.60;;;;;;;11.49;100.00;96631.88;5037159;28;20056;-58
2023/08/06 00:20:04;;;;;;;6.95;3.03;;;;;;;11.62;100.00;96627.75;5037223;28;20040;-58
2023/08/06 00:22:35;;;;;;;5.43;3.00;;;;;;;11.49;100.00;96597.44;5040989;28;20048;-58
2023/08/06 00:25:02;;;;;;;4.40;2.75;;;;;;;11.57;100.00;96607.72;5042255;28;20053;-58
2023/08/06 00:27:29;;;;;;;5.50;2.58;;;;;;;11.49;100.00;96583.06;5037787;28;20059;-58
2023/08/06 00:29:56;;;;;;;5.07;3.13;;;;;;;11.41;100.00;96604.25;5039559;28;20045;-58
2023/08/06 00:32:22;;;;;;;5.10;2.80;;;;;;;11.38;100.00;96602.09;5035264;28;20052;-58
2023/08/06 00:34:51;;;;;;;5.22;3.00;;;;;;;11.18;100.00;96590.22;5033884;28;20049;-58
2023/08/06 00:37:18;;;;;;;5.10;2.95;;;;;;;11.02;100.00;96599.50;5041371;28;20052;-58
2023/08/06 00:39:45;;;;;;;6.82;2.80;;;;;;;11.04;100.00;96608.97;5038979;28;20048;-58
2023/08/06 00:42:11;;;;;;;4.85;3.05;;;;;;;11.14;100.00;96608.13;5038140;28;20060;-58
2023/08/06 00:44:38;;;;;;;4.93;2.85;;;;;;;11.14;100.00;96596.47;5039515;28;20033;-58
2023/08/06 00:47:08;;;;;;;6.28;3.03;;;;;;;10.98;100.00;96582.16;5037826;28;20033;-58
2023/08/06 00:49:38;;;;;;;4.65;2.65;;;;;;;10.97;100.00;96586.75;5038700;28;20055;-58
2023/08/06 00:52:07;;;;;;;6.70;2.97;;;;;;;10.98;100.00;96599.22;5040876;28;20550;-56
2023/08/06 00:54:36;;;;;;;9.90;2.97;;;;;;;10.87;100.00;96590.28;5035531;28;20184;-57
2023/08/06 00:57:04;;;;;;;7.65;3.50;;;;;;;10.79;100.00;96586.25;5041479;28;20734;-56
2023/08/06 00:59:31;;;;;;;4.53;3.08;;;;;;;10.75;100.00;96577.03;5041100;28;20044;-57
2023/08/06 01:01:58;;;;;;;4.75;2.95;;;;;;;10.86;100.00;96587.84;5038220;28;20036;-55
2023/08/06 01:04:25;;;;;;;7.18;3.47;;;;;;;10.90;100.00;96600.59;5029460;28;20040;-57
2023/08/06 01:07:08;;;;;;;5.22;3.08;;;;;;;10.79;100.00;96570.00;5032451;28;20048;-58
2023/08/06 01:09:47;;;;;;;5.13;3.40;;;;;;;10.77;100.00;96561.31;5035967;28;20099;-56
2023/08/06 01:12:32;;;;;;;6.47;3.72;;;;;;;10.86;100.00;96574.31;5037628;28;20067;-57
2023/08/06 01:15:14;;;;;;;5.30;3.25;;;;;;;10.77;100.00;96563.22;5041474;28;20119;-58
2023/08/06 01:17:40;;;;;;;5.38;3.22;;;;;;;10.80;100.00;96568.91;5037352;28;20056;-57
2023/08/06 01:20:07;;;;;;;5.95;3.40;;;;;;;10.89;100.00;96576.47;5039887;28;20128;-55
2023/08/06 01:22:34;;;;;;;5.82;3.40;;;;;;;10.99;100.00;96587.28;5031180;28;20049;-55
2023/08/06 01:25:01;;;;;;;7.57;3.35;;;;;;;11.09;100.00;96582.94;5036164;28;20190;-58
2023/08/06 01:27:37;;;;;;;6.13;3.28;;;;;;;10.99;100.00;96543.16;5040907;28;20037;-57
2023/08/06 01:30:13;;;;;;;5.32;3.00;;;;;;;11.01;100.00;96530.94;5038922;28;20071;-57
2023/08/06 01:32:46;;;;;;;4.85;2.90;;;;;;;10.96;100.00;96511.19;5035180;28;20052;-57
2023/08/06 01:35:15;;;;;;;5.68;3.00;;;;;;;11.03;100.00;96538.81;5035153;28;20047;-58
2023/08/06 01:37:42;;;;;;;5.93;2.83;;;;;;;10.90;100.00;96508.50;5041865;28;20125;-56
2023/08/06 01:40:13;;;;;;;5.38;2.88;;;;;;;10.93;100.00;96516.09;5042332;28;20178;-58
2023/08/06 01:42:40;;;;;;;5.93;3.13;;;;;;;11.02;100.00;96537.19;5032202;28;20550;-56
2023/08/06 01:45:08;;;;;;;6.97;2.97;;;;;;;11.14;100.00;96545.81;5037204;28;20034;-55
2023/08/06 01:47:35;;;;;;;6.10;2.67;;;;;;;10.85;100.00;96507.69;5041041;28;20079;-57
2023/08/06 01:50:02;;;;;;;4.70;2.60;;;;;;;10.70;100.00;96512.06;5041117;28;20041;-56
2023/08/06 01:52:29;;;;;;;5.55;2.95;;;;;;;10.76;100.00;96532.63;5040063;28;20423;-56
2023/08/06 01:54:55;;;;;;;6.85;3.92;;;;;;;10.85;100.00;96543.72;5038976;28;20040;-53
2023/08/06 01:57:22;;;;;;;4.50;2.83;;;;;;;10.71;100.00;96512.88;5040535;28;20049;-56
2023/08/06 01:59:49;;;;;;;6.05;2.50;;;;;;;10.61;100.00;96508.31;5039354;28;20721;-58
2023/08/06 02:02:15;;;;;;;5.15;3.30;;;;;;;10.59;100.00;96522.13;5043358;28;20592;-58
2023/08/06 02:04:42;;;;;;;6.07;3.65;;;;;;;10.70;100.00;96532.91;5037225;28;20040;-57
2023/08/06 02:07:08;;;;;;;4.85;3.33;;;;;;;10.75;100.00;96522.06;5038583;28;20531;-57
2023/08/06 02:09:35;;;;;;;5.55;3.00;;;;;;;10.86;100.00;96520.97;5040373;28;20654;-55
2023/08/06 02:12:02;;;;;;;8.75;3.40;;;;;;;10.89;100.00;96497.94;5039852;28;20053;-58
2023/08/06 02:14:29;;;;;;;8.73;3.10;;;;;;;10.95;100.00;96468.94;5039242;28;20037;-58
2023/08/06 02:16:56;;;;;;;4.18;2.70;;;;;;;11.06;100.00;96470.53;5040255;28;20041;-55
2023/08/06 02:19:24;;;;;;;6.35;3.33;;;;;;;11.21;100.00;96450.69;5038935;28;20849;-57
2023/08/06 02:21:51;;;;;;;4.13;2.67;;;;;;;11.32;100.00;96438.69;5041915;28;20047;-57
2023/08/06 02:24:18;;;;;;;6.43;2.92;;;;;;;11.41;100.00;96419.94;5042728;28;20504;-58
2023/08/06 02:26:44;;;;;;;4.63;2.75;;;;;;;11.54;100.00;96423.91;5040378;28;20072;-56
2023/08/06 02:29:12;;;;;;;4.80;2.95;;;;;;;11.67;100.00;96416.25;5037561;28;20106;-58
2023/08/06 02:31:38;;;;;;;6.15;3.03;;;;;;;11.71;100.00;96406.44;5040141;28;20055;-57
2023/08/06 02:34:05;;;;;;;5.30;2.55;;;;;;;11.77;100.00;96399.91;5039574;28;20083;-55
2023/08/06 02:36:31;;;;;;;4.30;2.40;;;;;;;11.86;100.00;96402.81;5043229;28;20045;-57
2023/08/06 02:38:58;;;;;;;5.65;2.90;;;;;;;11.88;100.00;96402.50;5035491;28;20045;-56
2023/08/06 02:41:25;;;;;;;6.22;2.60;;;;;;;11.93;100.00;96392.44;5035517;28;20044;-55
2023/08/06 02:43:52;;;;;;;5.55;2.40;;;;;;;12.06;100.00;96382.84;5041962;28;20029;-57
2023/08/06 02:46:19;;;;;;;4.63;2.20;;;;;;;12.21;100.00;96386.50;5043730;28;20069;-53
2023/08/06 02:48:45;;;;;;;6.32;2.20;;;;;;;12.24;100.00;96380.53;5042317;28;20670;-55
2023/08/06 02:51:12;;;;;;;4.35;2.13;;;;;;;12.30;100.00;96371.22;5043266;28;20045;-57
2023/08/06 02:53:39;;;;;;;4.05;1.80;;;;;;;12.35;100.00;96371.16;5035925;28;20068;-56
2023/08/06 02:56:08;;;;;;;5.32;1.73;;;;;;;12.43;100.00;96360.78;5045871;28;20128;-57
2023/08/06 02:58:56;;;;;;;4.68;2.40;;;;;;;12.47;100.00;96362.63;5041794;28;20301;-56
2023/08/06 03:01:38;;;;;;;4.22;2.38;;;;;;;12.36;100.00;96352.97;5037704;28;20176;-58
2023/08/06 03:04:13;;;;;;;5.50;2.20;;;;;;;12.38;100.00;96358.13;5043216;28;20045;-59
2023/08/06 03:06:43;;;;;;;4.15;2.15;;;;;;;12.48;100.00;96358.00;5037948;28;20053;-58
2023/08/06 03:09:10;;;;;;;6.40;1.90;;;;;;;12.57;100.00;96366.31;5039724;28;20064;-58
2023/08/06 03:11:36;;;;;;;4.18;1.67;;;;;;;12.67;100.00;96368.91;5042060;28;20076;-57
2023/08/06 03:14:08;;;;;;;6.28;2.10;;;;;;;12.68;100.00;96369.72;5042345;28;20095;-57
2023/08/06 03:16:35;;;;;;;4.70;1.92;;;;;;;12.78;100.00;96372.28;5041246;28;20136;-58
2023/08/06 03:19:02;;;;;;;3.42;1.70;;;;;;;12.79;100.00;96363.03;5042628;28;20037;-57
2023/08/06 03:21:29;;;;;;;4.35;1.80;;;;;;;12.84;100.00;96362.19;5038203;28;20052;-57
2023/08/06 03:23:56;;;;;;;5.57;1.83;;;;;;;12.80;100.00;96372.81;5042294;28;20542;-58
2023/08/06 03:26:26;;;;;;;3.65;1.80;;;;;;;12.79;100.00;96359.53;5040436;28;20068;-58
2023/08/06 03:28:53;;;;;;;3.15;1.88;;;;;;;12.78;100.00;96366.88;5038402;28;20135;-55
2023/08/06 03:31:20;;;;;;;7.15;1.90;;;;;;;12.60;100.00;96363.00;5040276;28;20135;-58
2023/08/06 03:33:47;;;;;;;3.60;1.67;;;;;;;12.67;100.00;96379.75;5042542;28;20037;-58
2023/08/06 03:36:17;;;;;;;3.67;1.83;;;;;;;12.72;100.00;96368.03;5036440;28;20453;-57
2023/08/06 03:38:44;;;;;;;4.53;1.30;;;;;;;12.83;100.00;96366.00;5040592;28;20049;-57
2023/08/06 03:41:13;;;;;;;3.90;1.50;;;;;;;12.86;100.00;96366.22;5041543;28;20071;-57
2023/08/06 03:43:40;;;;;;;5.00;1.88;;;;;;;12.98;100.00;96367.72;5039205;28;20080;-56
2023/08/06 03:46:11;;;;;;;;;;;;;;;13.12;100.00;96363.16;5042482;28;20037;-56
2023/08/06 03:48:38;;;;;;;9.40;2.15;;;;;;;13.12;100.00;96363.16;5042506;28;19928;-57
2023/08/06 03:51:05;;;;;;;4.50;1.88;;;;;;;13.11;100.00;96360.72;5022484;28;20048;-57
2023/08/06 03:53:31;;;;;;;5.43;1.67;;;;;;;13.19;100.00;96373.66;5038990;28;20131;-55
2023/08/06 03:55:59;;;;;;;4.22;1.80;;;;;;;13.25;100.00;96372.50;5034734;28;20158;-57
2023/08/06 03:58:26;;;;;;;7.28;1.80;;;;;;;13.23;100.00;96371.19;5039645;28;20048;-57
2023/08/06 04:01:00;;;;;;;5.13;1.50;;;;;;;13.24;100.00;96361.91;5043912;28;20045;-57
2023/08/06 04:03:31;;;;;;;4.35;1.92;;;;;;;13.18;100.00;96369.31;5039540;28;20128;-56
2023/08/06 04:05:58;;;;;;;4.40;1.58;;;;;;;13.10;100.00;96368.09;5032943;28;20041;-57
2023/08/06 04:08:24;;;;;;;3.38;1.55;;;;;;;13.09;100.00;96379.25;5036460;28;20037;-56
2023/08/06 04:10:52;;;;;;;3.55;1.60;;;;;;;13.08;100.00;96383.06;5035845;28;20045;-56
2023/08/06 04:13:20;;;;;;;3.33;1.80;;;;;;;13.10;100.00;96376.25;5040004;28;20172;-57
2023/08/06 04:15:47;;;;;;;2.95;1.60;;;;;;;13.04;100.00;96369.25;5037162;28;20121;-57
2023/08/06 04:18:14;;;;;;;5.13;1.50;;;;;;;13.05;100.00;96359.19;5040256;28;20044;-56
2023/08/06 04:20:49;;;;;;;2.03;1.17;;;;;;;13.04;100.00;96361.09;5039551;28;20547;-56
2023/08/06 04:23:15;;;;;;;2.72;0.93;;;;;;;13.08;100.00;96369.47;5035017;28;20407;-58
2023/08/06 04:25:42;;;;;;;2.17;0.95;;;;;;;13.07;100.00;96365.13;5034121;28;20079;-54
2023/08/06 04:28:09;;;;;;;3.08;1.33;;;;;;;13.03;100.00;96364.91;5038510;28;20563;-54
2023/08/06 04:30:37;;;;;;;3.42;1.00;;;;;;;13.04;100.00;96365.72;5035207;28;20131;-57
2023/08/06 04:33:04;;;;;;;2.47;0.90;;;;;;;13.07;100.00;96376.81;5035579;28;20052;-56
2023/08/06 04:35:32;;;;;;;2.67;0.68;;;;;;;13.06;100.00;96374.38;5030967;28;20049;-56
2023/08/06 04:37:59;;;;;;;3.15;0.80;;;;;;;13.04;100.00;96368.44;5032910;28;20535;-56
2023/08/06 04:40:25;;;;;;;1.17;0.65;;;;;;;12.95;100.00;96377.25;5040802;28;20491;-57
2023/08/06 04:42:53;;;;;;;2.63;0.80;;;;;;;12.95;100.00;96382.69;5038561;28;20068;-54
2023/08/06 04:45:20;;;;;;;3.60;1.17;;;;;;;12.96;100.00;96383.47;5039033;28;20167;-58
2023/08/06 04:47:46;;;;;;;1.10;0.60;;;;;;;12.95;100.00;96379.16;5038535;28;20068;-58
2023/08/06 04:50:13;;;;;;;2.17;0.90;;;;;;;12.99;100.00;96378.28;5038979;28;20049;-58
2023/08/06 04:52:39;;;;;;;1.30;0.50;;;;;;;13.07;100.00;96374.09;5038136;28;20630;-57
2023/08/06 04:55:06;;;;;;;1.25;0.47;;;;;;;13.19;100.00;96381.81;5034953;28;20071;-57
2023/08/06 04:57:33;;;;;;;1.88;0.52;;;;;;;13.28;100.00;96376.53;5040450;28;20059;-58
2023/08/06 04:59:59;;;;;;;1.17;0.40;;;;;;;13.32;100.00;96368.59;5038164;28;20049;-57
2023/08/06 05:02:26;;;;;;;1.75;0.52;;;;;;;13.30;100.00;96373.53;5039552;28;20041;-57
2023/08/06 05:04:52;;;;;;;2.05;0.68;;;;;;;13.35;100.00;96384.31;5034739;28;20038;-56
2023/08/06 05:07:19;;;;;;;2.58;0.65;;;;;;;13.41;100.00;96377.69;5041092;28;20049;-54
2023/08/06 05:09:46;;;;;;;2.13;0.75;;;;;;;13.43;100.00;96366.53;5037795;28;20049;-57
2023/08/06 05:12:12;;;;;;;1.85;0.60;;;;;;;13.50;100.00;96369.72;5035945;28;20048;-56
2023/08/06 05:14:39;;;;;;;1.15;0.47;;;;;;;13.49;100.00;96365.38;5035969;28;20041;-57
2023/08/06 05:17:05;;;;;;;1.38;0.57;;;;;;;13.65;100.00;96365.94;5036419;28;20110;-56
2023/08/06 05:19:31;;;;;;;1.15;0.50;;;;;;;13.69;100.00;96369.69;5035976;28;20725;-56
2023/08/06 05:21:58;;;;;;;2.50;0.52;;;;;;;13.60;100.00;96374.19;5034838;28;20044;-56
2023/08/06 05:24:25;;;;;;;0.90;0.50;;;;;;;13.59;99.22;96370.66;5042628;28;20067;-55
2023/08/06 05:26:51;;;;;;;1.35;0.43;;;;;;;13.60;100.00;96374.19;5041718;28;20052;-57
2023/08/06 05:29:18;;;;;;;4.25;0.73;;;;;;;13.61;100.00;96373.91;5042442;28;20063;-56
2023/08/06 05:31:44;;;;;;;0.75;0.20;;;;;;;13.50;100.00;96373.22;5038769;28;20506;-56
2023/08/06 05:34:11;;;;;;;1.45;0.60;;;;;;;13.52;100.00;96378.38;5033657;28;20041;-58
2023/08/06 05:36:37;;;;;;;0.80;0.40;;;;;;;13.55;100.00;96380.50;5036203;28;20044;-55
2023/08/06 05:39:04;;;;;;;1.40;0.50;;;;;;;13.63;100.00;96382.56;5042244;28;20516;-58
2023/08/06 05:41:30;;;;;;;1.40;0.40;;;;;;;13.51;100.00;96398.50;5037869;28;20063;-55
2023/08/06 05:43:57;;;;;;;1.38;0.57;;;;;;;13.63;100.00;96398.06;5042185;28;20102;-57
2023/08/06 05:46:24;;;;;;;0.40;0.40;;;;;;;13.62;100.00;96394.56;5037934;28;20388;-56
2023/08/06 05:48:51;;;;;;;1.80;0.50;;;;;;;13.52;100.00;96400.94;5039951;28;20102;-58
2023/08/06 05:51:17;;;;;;;4.97;1.10;;;;;;;13.60;100.00;96399.47;5041651;28;20500;-58
2023/08/06 05:53:45;;;;;;;1.60;0.50;;;;;;;13.43;100.00;96402.69;5042874;28;20741;-56
2023/08/06 05:56:12;;;;;;;1.27;0.52;;;;;;;13.25;100.00;96404.31;5038297;28;20048;-57
2023/08/06 05:58:39;;;;;;;1.67;0.50;;;;;;;13.42;100.00;96403.81;5042663;28;20056;-56
2023/08/06 06:01:06;;;;;;;2.00;0.50;;;;;;;13.30;100.00;96400.72;5037936;28;20522;-57
2023/08/06 06:03:32;;;;;;;0.60;0.35;;;;;;;13.21;100.00;96392.41;5038472;28;20524;-57
2023/08/06 06:06:01;;;;;;;0.57;0.30;;;;;;;13.14;100.00;96404.44;5039010;28;20170;-56
2023/08/06 06:08:27;;;;;;;2.90;0.73;;;;;;;13.23;100.00;96401.06;5044573;28;20544;-55
2023/08/06 06:10:54;;;;;;;2.33;0.60;;;;;;;13.22;100.00;96399.44;5045280;28;20480;-57
2023/08/06 06:13:20;;;;;;;2.20;0.60;;;;;;;13.18;100.00;96406.56;5042999;28;20080;-56
2023/08/06 06:15:47;;;;;;;1.23;0.50;;;;;;;13.14;100.00;96407.16;5044658;28;20442;-57
2023/08/06 06:18:14;;;;;;;1.60;0.40;;;;;;;13.14;100.00;96407.16;5041691;28;20120;-57
2023/08/06 06:20:40;;;;;;;2.88;0.65;;;;;;;13.01;100.00;96411.41;5040284;28;20043;-56
2023/08/06 06:23:07;;;;;;;2.28;0.50;;;;;;;13.04;100.00;96426.31;5041647;28;20056;-57
2023/08/06 06:25:33;;;;;;;1.23;0.50;;;;;;;13.02;100.00;96423.09;5043587;28;20029;-58
2023/08/06 06:28:00;;;;;;;0.80;0.40;;;;;;;13.01;100.00;96424.16;5040993;28;20593;-58
2023/08/06 06:30:26;;;;;;;1.13;0.40;;;;;;;13.06;100.00;96429.56;5042892;28;20063;-56
2023/08/06 06:32:53;;;;;;;2.65;0.40;;;;;;;13.15;100.00;96426.97;5037265;28;20069;-58
2023/08/06 06:35:19;;;;;;;2.47;0.60;;;;;;;13.13;100.00;96432.72;5037840;28;20701;-58
2023/08/06 06:37:46;;;;;;;3.70;0.88;;;;;;;13.19;100.00;96435.38;5032350;28;20507;-57
2023/08/06 06:40:12;;;;;;;2.70;0.40;;;;;;;13.13;100.00;96435.41;5039114;28;20063;-58
2023/08/06 06:42:39;;;;;;;1.23;0.57;;;;;;;13.12;100.00;96438.47;5039884;28;20048;-57
2023/08/06 06:45:08;;;;;;;0.73;0.35;;;;;;;13.10;100.00;96436.03;5036268;28;20496;-58
2023/08/06 06:47:35;;;;;;;1.20;0.30;;;;;;;13.16;100.00;96433.25;5042597;28;20098;-57
2023/08/06 06:50:01;;;;;;;1.10;0.40;;;;;;;13.23;100.00;96434.50;5036700;28;20037;-54
2023/08/06 06:52:28;;;;;;;1.08;0.30;;;;;;;13.29;100.00;96432.50;5039239;28;20033;-57
2023/08/06 06:54:54;;;;;;;0.60;0.30;;;;;;;13.22;100.00;96424.72;5044993;28;20119;-55
2023/08/06 06:57:21;;;;;;;0.75;0.30;;;;;;;13.14;100.00;96431.63;5038896;28;20059;-58
2023/08/06 06:59:47;;;;;;;0.73;0.38;;;;;;;13.18;100.00;96428.31;5040204;28;20057;-56
2023/08/06 07:02:14;;;;;;;2.10;0.30;;;;;;;13.35;100.00;96425.88;5041208;28;20041;-55
2023/08/06 07:04:40;;;;;;;0.20;0.20;;;;;;;13.36;100.00;96426.72;5036114;28;20048;-56
2023/08/06 07:07:07;;;;;;;0.98;0.28;;;;;;;13.17;100.00;96432.13;5039146;28;20036;-56
2023/08/06 07:09:33;;;;;;;0.43;0.10;;;;;;;13.14;100.00;96436.25;5041454;28;20044;-55
2023/08/06 07:12:01;;;;;;;0.93;0.40;;;;;;;13.18;100.00;96437.28;5038810;28;20069;-57
2023/08/06 07:14:28;;;;;;;0.63;0.20;;;;;;;13.12;100.00;96438.47;5038262;28;20033;-56
2023/08/06 07:16:54;;;;;;;1.33;0.30;;;;;;;13.25;100.00;96443.19;5039011;28;20107;-57
2023/08/06 07:19:21;;;;;;;2.10;0.30;;;;;;;13.20;100.00;96442.44;5042422;28;20068;-54
2023/08/06 07:21:48;;;;;;;0.70;0.10;;;;;;;13.17;100.00;96451.16;5040848;28;20045;-55
2023/08/06 07:24:15;;;;;;;0.30;0.20;;;;;;;13.19;100.00;96447.03;5042342;28;20272;-56
2023/08/06 07:26:41;;;;;;;1.15;0.30;;;;;;;13.18;100.00;96450.06;5039753;28;20041;-57
2023/08/06 07:29:08;;;;;;;0.93;0.45;;;;;;;13.21;100.00;96452.19;5042712;28;20049;-54
2023/08/06 07:31:35;;;;;;;0.25;0.10;;;;;;;13.22;100.00;96459.25;5041082;28;20044;-57
2023/08/06 07:34:01;;;;;;;0.60;0.10;;;;;;;13.18;100.00;96464.47;5039935;28;20037;-56
2023/08/06 07:36:28;;;;;;;0.30;0.13;;;;;;;13.09;100.00;96464.28;5041762;28;20670;-57
2023/08/06 07:38:56;;;;;;;1.90;0.20;;;;;;;13.05;100.00;96467.88;5041222;28;20041;-60
2023/08/06 07:41:23;;;;;;;1.27;0.35;;;;;;;13.10;100.00;96462.38;5040210;28;20047;-55
2023/08/06 07:43:50;;;;;;;0.47;0.32;;;;;;;13.10;100.00;96470.53;5039751;28;20519;-56
2023/08/06 07:46:16;;;;;;;0.08;0.08;;;;;;;13.22;100.00;96461.97;5044353;28;20043;-58
2023/08/06 07:48:43;;;;;;;1.08;0.10;;;;;;;13.30;100.00;96449.66;5041433;28;20662;-58
2023/08/06 07:51:10;;;;;;;0.43;0.10;;;;;;;13.34;100.00;96446.03;5041087;28;20060;-57
2023/08/06 07:53:36;;;;;;;0.38;0.10;;;;;;;13.46;100.00;96442.91;5038898;28;20052;-57
2023/08/06 07:56:03;;;;;;;0.20;0.10;;;;;;;13.58;100.00;96439.75;5038361;28;20044;-56
2023/08/06 07:58:29;;;;;;;0.08;0.08;;;;;;;13.82;100.00;96436.13;5041323;28;20390;-56
2023/08/06 08:00:56;;;;;;;0.57;0.28;;;;;;;13.99;100.00;96438.31;5036614;28;20033;-57
2023/08/06 08:03:22;;;;;;;0.17;0.10;;;;;;;14.26;100.00;96434.03;5037407;28;20478;-55
2023/08/06 08:05:49;;;;;;;1.58;0.10;;;;;;;14.41;100.00;96435.69;5036988;28;20041;-57
2023/08/06 08:08:16;;;;;;;0.15;0.10;;;;;;;14.47;100.00;96435.59;5043071;28;20064;-57
2023/08/06 08:10:42;;;;;;;0.00;0.00;;;;;;;14.33;100.00;96441.81;5041144;28;20041;-57
2023/08/06 08:13:10;;;;;;;0.20;0.00;;;;;;;14.23;100.00;96448.25;5035768;28;20036;-58
2023/08/06 08:15:36;;;;;;;1.15;0.15;;;;;;;14.40;100.00;96436.81;5039251;28;20037;-54
2023/08/06 08:18:03;;;;;;;0.20;0.03;;;;;;;14.27;100.00;96443.03;5034901;28;20052;-58
2023/08/06 08:20:31;;;;;;;0.10;0.00;;;;;;;14.30;100.00;96440.50;5035738;28;20056;-57
2023/08/06 08:23:02;;;;;;;0.68;0.10;;;;;;;14.29;99.41;96429.91;5039156;28;20049;-58
2023/08/06 08:25:29;;;;;;;0.25;0.05;;;;;;;14.44;98.60;96437.00;5040549;28;20116;-56
2023/08/06 08:27:57;;;;;;;0.00;0.00;;;;;;;14.66;99.07;96435.50;5038625;28;20041;-56
2023/08/06 08:30:24;;;;;;;1.35;0.00;;;;;;;14.68;98.98;96439.53;5038994;28;20542;-56
2023/08/06 08:32:51;;;;;;;1.55;0.85;;;;;;;14.63;99.02;96439.66;5036349;28;20476;-58
2023/08/06 08:35:18;;;;;;;0.45;0.17;;;;;;;14.64;98.73;96429.56;5039783;28;20167;-57
2023/08/06 08:37:45;;;;;;;0.00;0.00;;;;;;;14.60;98.39;96431.28;5040165;28;20095;-53
2023/08/06 08:40:11;;;;;;;0.65;0.10;;;;;;;14.61;100.00;96441.88;5041387;28;20053;-55
2023/08/06 08:42:38;;;;;;;0.30;0.00;;;;;;;14.65;100.00;96433.91;5037586;28;20036;-57
2023/08/06 08:45:11;;;;;;;0.20;0.00;;;;;;;14.30;100.00;96428.81;5034183;28;20112;-56
2023/08/06 08:47:38;;;;;;;1.25;0.20;;;;;;;14.11;100.00;96437.84;5037555;28;20049;-57
2023/08/06 08:50:06;;;;;;;0.60;0.10;;;;;;;14.09;100.00;96440.06;5038137;28;20272;-56
2023/08/06 08:52:35;;;;;;;0.00;0.00;;;;;;;13.96;100.00;96436.19;5043898;28;20061;-53
2023/08/06 08:55:02;;;;;;;0.75;0.20;;;;;;;14.17;100.00;96441.28;5039118;28;20045;-57
2023/08/06 08:57:28;;;;;;;0.20;0.10;;;;;;;14.44;100.00;96440.53;5038527;28;20290;-54
2023/08/06 08:59:55;;;;;;;0.00;0.00;;;;;;;14.53;100.00;96435.19;5036856;28;20051;-55
2023/08/06 09:02:25;;;;;;;0.57;0.10;;;;;;;14.28;100.00;96436.47;5036975;28;20045;-57
2023/08/06 09:04:52;;;;;;;0.00;0.00;;;;;;;14.37;100.00;96442.06;5035917;28;20451;-57
2023/08/06 09:07:21;;;;;;;0.00;0.00;;;;;;;14.33;100.00;96441.03;5042131;28;20121;-58
2023/08/06 09:09:49;;;;;;;3.03;0.38;;;;;;;14.40;100.00;96444.97;5035500;28;20601;-56
2023/08/06 09:12:17;;;;;;;0.63;0.10;;;;;;;14.31;100.00;96450.28;5039293;28;20409;-56
2023/08/06 09:14:43;;;;;;;0.30;0.08;;;;;;;14.49;100.00;96449.72;5035965;28;20515;-56
2023/08/06 09:17:13;;;;;;;0.20;0.00;;;;;;;14.46;100.00;96450.31;5035517;28;20052;-56
2023/08/06 09:19:47;;;;;;;0.10;0.05;;;;;;;14.53;100.00;96461.63;5036456;28;20053;-58
2023/08/06 09:22:14;;;;;;;0.57;0.08;;;;;;;14.54;100.00;96457.81;5034787;28;20057;-57
2023/08/06 09:24:41;;;;;;;0.25;0.10;;;;;;;14.47;100.00;96469.09;5035086;28;20121;-58
2023/08/06 09:27:15;;;;;;;0.13;0.10;;;;;;;14.64;100.00;96471.25;5038020;28;20041;-58
2023/08/06 09:29:43;;;;;;;0.00;0.00;;;;;;;14.56;100.00;96475.47;5034719;28;20114;-56
2023/08/06 09:32:12;;;;;;;0.00;0.00;;;;;;;14.54;100.00;96476.88;5031808;28;20530;-55
2023/08/06 09:34:41;;;;;;;0.90;0.10;;;;;;;14.56;100.00;96469.22;5035406;28;20124;-57
2023/08/06 09:37:10;;;;;;;0.10;0.05;;;;;;;14.37;100.00;96477.44;5040636;28;20047;-55
2023/08/06 09:39:39;;;;;;;2.67;0.20;;;;;;;14.42;100.00;96472.69;5037179;28;20049;-55
2023/08/06 09:42:06;;;;;;;0.52;0.10;;;;;;;14.22;100.00;96479.31;5039942;28;20033;-57
2023/08/06 09:44:33;;;;;;;0.28;0.00;;;;;;;14.34;100.00;96464.44;5039726;28;20046;-57
2023/08/06 09:47:04;;;;;;;0.60;0.20;;;;;;;14.49;100.00;96463.34;5034605;28;20045;-57
2023/08/06 09:49:33;;;;;;;0.85;0.10;;;;;;;14.55;100.00;96462.97;5036289;28;20095;-58
2023/08/06 09:52:00;;;;;;;0.17;0.10;;;;;;;14.40;100.00;96466.75;5034766;28;20377;-56
2023/08/06 09:54:28;;;;;;;0.40;0.00;;;;;;;14.54;100.00;96468.69;5040976;28;20045;-57
2023/08/06 09:56:55;;;;;;;0.60;0.30;;;;;;;14.66;100.00;96474.47;5038467;28;20129;-55
2023/08/06 09:59:26;;;;;;;0.45;0.10;;;;;;;14.62;100.00;96470.72;5032400;28;20493;-57
2023/08/06 10:01:55;;;;;;;2.33;0.20;;;;;;;14.70;100.00;96467.31;5034015;28;20041;-57
2023/08/06 10:04:23;;;;;;;0.52;0.05;;;;;;;14.70;100.00;96467.31;5035936;28;20041;-53
2023/08/06 10:06:52;;;;;;;0.30;0.10;;;;;;;14.97;100.00;96480.47;5038133;28;20045;-57
2023/08/06 10:09:20;;;;;;;0.45;0.10;;;;;;;14.98;100.00;96493.00;5034892;28;20056;-56
2023/08/06 10:11:53;;;;;;;0.00;0.00;;;;;;;15.14;99.73;96483.41;5037482;28;20583;-55
2023/08/06 10:14:36;;;;;;;0.75;0.10;;;;;;;15.08;100.00;96487.34;5035464;28;20519;-57
2023/08/06 10:17:03;;;;;;;0.13;0.10;;;;;;;15.09;100.00;96488.97;5042227;28;20455;-54
2023/08/06 10:19:30;;;;;;;0.55;0.10;;;;;;;14.95;99.43;96483.50;5041868;28;20041;-58
2023/08/06 10:22:15;;;;;;;0.45;0.10;;;;;;;14.85;99.27;96484.50;5034030;28;20049;-57
2023/08/06 10:25:05;;;;;;;0.10;0.00;;;;;;;15.10;99.65;96496.03;5035803;28;20040;-57
2023/08/06 10:27:39;;;;;;;0.40;0.13;;;;;;;15.01;99.28;96487.75;5038516;28;20081;-54
2023/08/06 10:30:27;;;;;;;0.10;0.00;;;;;;;14.88;98.40;96500.25;5036973;28;20040;-58
2023/08/06 10:33:00;;;;;;;0.00;0.00;;;;;;;14.90;99.37;96513.59;5035021;28;20045;-57
2023/08/06 10:35:37;;;;;;;0.10;0.10;;;;;;;14.94;99.89;96501.78;5044042;28;20041;-56
2023/08/06 10:38:13;;;;;;;1.17;0.15;;;;;;;14.84;100.00;96515.59;5039706;28;20487;-58
2023/08/06 10:40:41;;;;;;;0.10;0.10;;;;;;;14.76;98.34;96503.47;5042993;28;20055;-56
2023/08/06 10:43:28;;;;;;;0.10;0.10;;;;;;;14.72;97.49;96518.78;5040254;28;20041;-58
2023/08/06 10:45:55;;;;;;;0.28;0.20;;;;;;;14.57;97.59;96533.47;5038151;28;20061;-60
2023/08/06 10:48:39;;;;;;;0.30;0.20;;;;;;;14.08;100.00;96522.00;5018069;28;20048;-57
2023/08/06 10:51:09;;;;;;;1.35;0.30;;;;;;;13.82;100.00;96541.44;5040582;28;20152;-57
2023/08/06 10:53:36;;;;;;;2.08;0.57;;;;;;;13.74;100.00;96534.72;5028502;28;20052;-58
2023/08/06 10:56:15;;;;;;;0.50;0.30;;;;;;;13.80;100.00;96539.00;5016318;28;20526;-55
2023/08/06 10:58:43;;;;;;;0.77;0.40;;;;;;;13.80;100.00;96533.56;5030508;28;20040;-60
2023/08/06 11:01:11;;;;;;;0.82;0.38;;;;;;;13.86;100.00;96537.03;5037775;28;20785;-60
2023/08/06 11:03:38;;;;;;;0.68;0.45;;;;;;;13.79;100.00;96529.22;5042985;28;20677;-62
2023/08/06 11:06:09;;;;;;;1.02;0.50;;;;;;;13.64;100.00;96549.28;5032236;28;20053;-58
2023/08/06 11:08:38;;;;;;;2.58;0.50;;;;;;;13.54;100.00;96550.22;5026582;28;20041;-60
2023/08/06 11:11:13;;;;;;;1.08;0.40;;;;;;;13.57;100.00;96557.00;5024893;28;20036;-55
2023/08/06 11:13:40;;;;;;;2.47;0.63;;;;;;;13.74;100.00;96546.44;5022631;28;20765;-61
2023/08/06 11:16:08;;;;;;;1.55;0.50;;;;;;;13.94;100.00;96544.53;5027637;28;20037;-58
2023/08/06 11:18:35;;;;;;;1.30;0.60;;;;;;;14.05;100.00;96540.53;5041079;28;20040;-60
2023/08/06 11:21:02;;;;;;;2.33;0.70;;;;;;;13.93;100.00;96561.16;5039239;28;20061;-60
2023/08/06 11:23:29;;;;;;;1.60;0.57;;;;;;;13.60;100.00;96572.75;5034247;28;20069;-62
2023/08/06 11:25:57;;;;;;;2.65;0.60;;;;;;;13.50;100.00;96560.06;5038350;28;20065;-60
2023/08/06 11:28:24;;;;;;;1.67;0.60;;;;;;;13.34;100.00;96551.28;5040901;28;20111;-57
2023/08/06 11:30:51;;;;;;;1.38;0.80;;;;;;;13.12;100.00;96575.13;5013686;28;20476;-58